createdAt,value
2018-07-22T00:00:24.822Z,76.59
2018-07-22T00:01:25.386Z,76.59
2018-07-22T00:02:25.956Z,76.88
2018-07-22T00:03:26.535Z,77.17
2018-07-22T00:04:27.085Z,77.65
2018-07-22T00:05:27.639Z,77.17
2018-07-22T00:06:28.194Z,77.65
2018-07-22T00:07:28.750Z,77.08
2018-07-22T00:08:29.303Z,77.13
2018-07-22T00:09:29.858Z,77.42
2018-07-22T00:10:30.403Z,77.33
2018-07-22T00:11:30.959Z,77.51
2018-07-22T00:12:31.515Z,77.90
2018-07-22T00:13:32.070Z,78.19
2018-07-22T00:14:32.624Z,78.19
2018-07-22T00:15:33.173Z,78.28
2018-07-22T00:16:33.728Z,78.58
2018-07-22T00:17:34.284Z,79.15
2018-07-22T00:18:34.845Z,79.15
2018-07-22T00:19:35.393Z,79.15
2018-07-22T00:20:35.953Z,79.15
2018-07-22T00:21:36.493Z,79.79
2018-07-22T00:22:37.041Z,79.60
2018-07-22T00:23:37.595Z,79.60
2018-07-22T00:24:38.146Z,79.79
2018-07-22T00:25:38.704Z,79.50
2018-07-22T00:26:39.254Z,79.60
2018-07-22T00:27:39.811Z,79.60
2018-07-22T00:28:40.364Z,79.50
2018-07-22T00:29:40.921Z,79.98
2018-07-22T00:30:41.476Z,79.98
2018-07-22T00:31:42.035Z,79.82
2018-07-22T00:32:42.585Z,79.79
2018-07-22T00:33:43.139Z,79.88
2018-07-22T00:34:43.698Z,79.98
2018-07-22T00:35:44.252Z,79.82
2018-07-22T00:36:44.808Z,79.60
2018-07-22T00:37:45.360Z,79.88
2018-07-22T00:38:45.939Z,79.88
2018-07-22T00:39:46.471Z,80.07
2018-07-22T00:40:47.031Z,79.88
2018-07-22T00:41:47.584Z,80.46
2018-07-22T00:42:48.139Z,80.46
2018-07-22T00:43:48.693Z,80.46
2018-07-22T00:44:49.250Z,80.27
2018-07-22T00:45:49.804Z,80.65
2018-07-22T00:46:50.361Z,80.84
2018-07-22T00:47:50.916Z,81.13
2018-07-22T00:48:51.473Z,80.94
2018-07-22T00:49:52.043Z,80.84
2018-07-22T00:50:52.575Z,81.09
2018-07-22T00:51:53.129Z,80.99
2018-07-22T00:52:53.687Z,81.19
2018-07-22T00:53:54.242Z,81.09
2018-07-22T00:54:54.797Z,81.42
2018-07-22T00:55:55.358Z,81.61
2018-07-22T00:56:55.905Z,81.04
2018-07-22T00:57:56.454Z,81.23
2018-07-22T00:58:57.010Z,80.94
2018-07-22T00:59:57.651Z,80.84
2018-07-22T01:00:58.115Z,81.04
2018-07-22T01:01:58.664Z,80.99
2018-07-22T01:02:59.216Z,81.19
2018-07-22T01:03:59.774Z,81.19
2018-07-22T01:05:00.329Z,81.19
2018-07-22T01:06:00.884Z,80.99
2018-07-22T01:07:01.441Z,81.19
2018-07-22T01:08:01.993Z,81.09
2018-07-22T01:09:02.546Z,81.38
2018-07-22T01:10:03.097Z,81.67
2018-07-22T01:11:03.652Z,81.67
2018-07-22T01:12:04.201Z,81.86
2018-07-22T01:13:04.757Z,81.67
2018-07-22T01:14:05.309Z,81.38
2018-07-22T01:15:05.867Z,81.67
2018-07-22T01:16:06.426Z,81.67
2018-07-22T01:17:06.977Z,81.57
2018-07-22T01:18:07.532Z,81.67
2018-07-22T01:19:08.081Z,81.57
2018-07-22T01:20:08.638Z,81.67
2018-07-22T01:21:09.196Z,81.67
2018-07-22T01:22:09.750Z,82.05
2018-07-22T01:23:10.295Z,82.24
2018-07-22T01:24:10.849Z,81.96
2018-07-22T01:25:11.405Z,82.43
2018-07-22T01:26:11.956Z,82.15
2018-07-22T01:27:12.512Z,82.05
2018-07-22T01:28:13.065Z,82.53
2018-07-22T01:29:13.623Z,82.53
2018-07-22T01:30:14.182Z,82.10
2018-07-22T01:31:14.735Z,82.78
2018-07-22T01:32:15.290Z,82.49
2018-07-22T01:33:15.839Z,82.53
2018-07-22T01:34:16.396Z,83.01
2018-07-22T01:35:16.955Z,82.49
2018-07-22T01:36:17.504Z,82.97
2018-07-22T01:37:18.069Z,82.87
2018-07-22T01:38:18.636Z,82.87
2018-07-22T01:39:19.189Z,82.59
2018-07-22T01:40:19.756Z,82.59
2018-07-22T01:41:20.313Z,82.97
2018-07-22T01:42:20.864Z,82.78
2018-07-22T01:43:21.489Z,82.97
2018-07-22T01:44:21.967Z,83.26
2018-07-22T01:45:22.527Z,83.74
2018-07-22T01:46:23.080Z,83.64
2018-07-22T01:47:23.634Z,84.22
2018-07-22T01:48:24.192Z,84.41
2018-07-22T01:49:24.738Z,83.54
2018-07-22T01:50:25.288Z,83.64
2018-07-22T01:51:25.842Z,83.36
2018-07-22T01:52:26.416Z,84.03
2018-07-22T01:53:26.948Z,84.03
2018-07-22T01:54:27.506Z,84.22
2018-07-22T01:55:28.061Z,84.12
2018-07-22T01:56:28.615Z,83.93
2018-07-22T01:57:29.165Z,84.31
2018-07-22T01:58:29.723Z,84.03
2018-07-22T01:59:30.272Z,84.12
2018-07-22T02:00:30.827Z,83.93
2018-07-22T02:01:31.434Z,83.98
2018-07-22T02:02:31.945Z,84.47
2018-07-22T02:03:32.501Z,84.47
2018-07-22T02:04:33.059Z,84.56
2018-07-22T02:05:33.611Z,84.85
2018-07-22T02:06:34.199Z,84.56
2018-07-22T02:07:34.714Z,84.37
2018-07-22T02:08:35.271Z,85.04
2018-07-22T02:09:35.823Z,85.04
2018-07-22T02:10:36.376Z,84.85
2018-07-22T02:11:36.931Z,84.66
2018-07-22T02:12:37.483Z,84.80
2018-07-22T02:13:38.030Z,84.56
2018-07-22T02:14:38.588Z,84.22
2018-07-22T02:15:39.140Z,84.51
2018-07-22T02:16:39.695Z,84.03
2018-07-22T02:17:40.248Z,84.41
2018-07-22T02:18:40.806Z,84.03
2018-07-22T02:19:41.396Z,84.03
2018-07-22T02:20:41.975Z,83.89
2018-07-22T02:21:42.481Z,84.18
2018-07-22T02:22:43.044Z,84.47
2018-07-22T02:23:43.599Z,84.85
2018-07-22T02:24:44.154Z,84.56
2018-07-22T02:25:44.709Z,84.95
2018-07-22T02:26:45.262Z,84.85
2018-07-22T02:27:45.814Z,85.04
2018-07-22T02:28:46.372Z,85.52
2018-07-22T02:29:46.923Z,84.56
2018-07-22T02:30:47.477Z,85.42
2018-07-22T02:31:48.023Z,85.24
2018-07-22T02:32:48.568Z,85.04
2018-07-22T02:33:49.118Z,85.00
2018-07-22T02:34:49.673Z,85.10
2018-07-22T02:35:50.227Z,85.10
2018-07-22T02:36:50.783Z,85.48
2018-07-22T02:37:51.335Z,84.91
2018-07-22T02:38:51.892Z,85.19
2018-07-22T02:39:52.440Z,85.48
2018-07-22T02:40:53.029Z,85.04
2018-07-22T02:41:53.549Z,85.33
2018-07-22T02:42:54.104Z,85.71
2018-07-22T02:43:54.655Z,85.77
2018-07-22T02:44:55.213Z,85.86
2018-07-22T02:45:55.758Z,85.48
2018-07-22T02:46:56.312Z,85.71
2018-07-22T02:47:56.859Z,85.62
2018-07-22T02:48:57.415Z,85.67
2018-07-22T02:49:57.961Z,85.67
2018-07-22T02:50:58.518Z,85.77
2018-07-22T02:51:59.073Z,85.77
2018-07-22T02:52:59.635Z,85.96
2018-07-22T02:54:00.188Z,85.96
2018-07-22T02:55:00.740Z,86.15
2018-07-22T02:56:01.299Z,86.54
2018-07-22T02:57:01.845Z,86.44
2018-07-22T02:58:02.394Z,86.15
2018-07-22T02:59:02.949Z,86.15
2018-07-22T03:00:03.505Z,86.15
2018-07-22T03:01:04.053Z,86.05
2018-07-22T03:02:04.601Z,87.01
2018-07-22T03:03:05.164Z,86.82
2018-07-22T03:04:05.708Z,86.92
2018-07-22T03:05:06.266Z,87.01
2018-07-22T03:06:06.819Z,87.11
2018-07-22T03:07:07.376Z,86.82
2018-07-22T03:08:07.924Z,87.11
2018-07-22T03:09:08.483Z,87.30
2018-07-22T03:10:09.041Z,87.21
2018-07-22T03:11:09.594Z,87.01
2018-07-22T03:12:10.146Z,87.30
2018-07-22T03:13:10.701Z,87.68
2018-07-22T03:14:11.254Z,87.11
2018-07-22T03:15:11.810Z,87.11
2018-07-22T03:16:12.368Z,87.40
2018-07-22T03:17:12.926Z,87.68
2018-07-22T03:18:13.477Z,87.93
2018-07-22T03:19:14.031Z,88.02
2018-07-22T03:20:14.581Z,88.07
2018-07-22T03:21:15.137Z,87.93
2018-07-22T03:22:15.694Z,87.55
2018-07-22T03:23:16.249Z,87.88
2018-07-22T03:24:16.801Z,88.22
2018-07-22T03:25:17.357Z,88.35
2018-07-22T03:26:17.920Z,88.51
2018-07-22T03:27:18.472Z,87.74
2018-07-22T03:28:19.029Z,87.64
2018-07-22T03:29:19.584Z,87.93
2018-07-22T03:30:20.142Z,88.02
2018-07-22T03:31:20.686Z,88.12
2018-07-22T03:32:21.240Z,88.60
2018-07-22T03:33:21.799Z,88.51
2018-07-22T03:34:22.354Z,88.70
2018-07-22T03:35:22.909Z,89.47
2018-07-22T03:36:23.465Z,89.47
2018-07-22T03:37:24.023Z,89.47
2018-07-22T03:38:24.604Z,89.27
2018-07-22T03:39:25.140Z,89.37
2018-07-22T03:40:25.696Z,89.65
2018-07-22T03:41:26.252Z,89.37
2018-07-22T03:42:26.803Z,89.65
2018-07-22T03:43:27.366Z,90.33
2018-07-22T03:44:27.918Z,90.14
2018-07-22T03:45:28.475Z,89.94
2018-07-22T03:46:29.033Z,90.33
2018-07-22T03:47:29.672Z,90.42
2018-07-22T03:48:30.146Z,90.33
2018-07-22T03:49:30.702Z,90.14
2018-07-22T03:50:31.252Z,90.71
2018-07-22T03:51:31.804Z,90.38
2018-07-22T03:52:32.361Z,90.81
2018-07-22T03:53:32.910Z,91.00
2018-07-22T03:54:33.467Z,91.09
2018-07-22T03:55:34.025Z,91.00
2018-07-22T03:56:34.583Z,91.09
2018-07-22T03:57:35.141Z,90.76
2018-07-22T03:58:35.701Z,90.57
2018-07-22T03:59:36.263Z,90.19
2018-07-22T04:00:36.817Z,90.38
2018-07-22T04:01:37.374Z,89.90
2018-07-22T04:02:37.927Z,90.38
2018-07-22T04:03:38.488Z,90.57
2018-07-22T04:04:39.045Z,90.28
2018-07-22T04:05:39.605Z,90.38
2018-07-22T04:06:40.157Z,90.19
2018-07-22T04:07:40.708Z,90.09
2018-07-22T04:08:41.259Z,89.90
2018-07-22T04:09:41.809Z,89.90
2018-07-22T04:10:42.363Z,90.00
2018-07-22T04:11:42.922Z,90.09
2018-07-22T04:12:43.479Z,90.28
2018-07-22T04:13:44.045Z,89.80
2018-07-22T04:14:44.597Z,90.09
2018-07-22T04:15:45.156Z,89.61
2018-07-22T04:16:46.015Z,89.51
2018-07-22T04:17:46.469Z,89.23
2018-07-22T04:18:47.030Z,89.42
2018-07-22T04:19:47.595Z,89.13
2018-07-22T04:20:48.150Z,89.51
2018-07-22T04:21:48.711Z,89.13
2018-07-22T04:22:49.270Z,89.23
2018-07-22T04:23:49.826Z,89.27
2018-07-22T04:24:50.386Z,88.89
2018-07-22T04:25:51.001Z,88.51
2018-07-22T04:26:51.544Z,88.51
2018-07-22T04:27:52.133Z,88.51
2018-07-22T04:28:52.672Z,88.02
2018-07-22T04:29:53.226Z,88.31
2018-07-22T04:30:53.789Z,88.12
2018-07-22T04:31:54.346Z,88.22
2018-07-22T04:32:54.906Z,88.12
2018-07-22T04:33:55.464Z,88.22
2018-07-22T04:34:56.026Z,88.41
2018-07-22T04:35:56.584Z,88.12
2018-07-22T04:36:57.149Z,88.12
2018-07-22T04:37:57.712Z,88.31
2018-07-22T04:38:58.260Z,88.22
2018-07-22T04:39:58.825Z,88.12
2018-07-22T04:40:59.437Z,88.51
2018-07-22T04:41:59.935Z,87.84
2018-07-22T04:43:00.494Z,88.45
2018-07-22T04:44:01.054Z,87.88
2018-07-22T04:45:01.689Z,87.88
2018-07-22T04:46:02.184Z,87.54
2018-07-22T04:47:02.743Z,86.87
2018-07-22T04:48:03.307Z,86.33
2018-07-22T04:49:03.860Z,85.75
2018-07-22T04:50:04.423Z,84.99
2018-07-22T04:51:04.986Z,84.64
2018-07-22T04:52:05.545Z,84.31
2018-07-22T04:53:06.104Z,83.64
2018-07-22T04:54:06.664Z,83.87
2018-07-22T04:55:07.217Z,83.20
2018-07-22T04:56:07.777Z,82.63
2018-07-22T04:57:08.337Z,82.63
2018-07-22T04:58:08.899Z,82.43
2018-07-22T04:59:09.461Z,82.63
2018-07-22T05:00:10.024Z,82.82
2018-07-22T05:01:10.592Z,82.92
2018-07-22T05:02:11.164Z,82.82
2018-07-22T05:03:11.712Z,82.34
2018-07-22T05:04:12.266Z,82.43
2018-07-22T05:05:12.824Z,82.82
2018-07-22T05:06:13.385Z,83.20
2018-07-22T05:07:13.944Z,82.73
2018-07-22T05:08:14.498Z,82.78
2018-07-22T05:09:15.065Z,82.97
2018-07-22T05:10:15.620Z,83.59
2018-07-22T05:11:16.182Z,83.73
2018-07-22T05:12:16.743Z,82.71
2018-07-22T05:13:17.297Z,81.56
2018-07-22T05:14:17.859Z,80.25
2018-07-22T05:15:18.423Z,78.33
2018-07-22T05:16:18.990Z,78.23
2018-07-22T05:17:19.549Z,77.59
2018-07-22T05:18:20.114Z,77.36
2018-07-22T05:19:20.680Z,77.21
2018-07-22T05:20:21.244Z,77.31
2018-07-22T05:21:21.806Z,76.63
2018-07-22T05:22:22.367Z,75.90
2018-07-22T05:23:22.930Z,76.18
2018-07-22T05:24:23.494Z,75.74
2018-07-22T05:25:24.054Z,75.16
2018-07-22T05:26:24.622Z,74.20
2018-07-22T05:27:25.188Z,73.91
2018-07-22T05:28:25.836Z,73.53
2018-07-22T05:29:26.318Z,73.43
2018-07-22T05:30:26.899Z,73.43
2018-07-22T05:31:27.465Z,73.91
2018-07-22T05:32:28.030Z,72.99
2018-07-22T05:33:28.600Z,72.69
2018-07-22T05:34:29.167Z,71.77
2018-07-22T05:35:29.744Z,71.64
2018-07-22T05:36:30.302Z,71.44
2018-07-22T05:37:30.862Z,71.64
2018-07-22T05:38:31.436Z,72.21
2018-07-22T05:39:32.018Z,72.89
2018-07-22T05:40:32.610Z,71.77
2018-07-22T05:41:33.185Z,71.48
2018-07-22T05:42:33.756Z,70.84
2018-07-22T05:43:34.324Z,70.26
2018-07-22T05:44:34.888Z,69.42
2018-07-22T05:45:35.461Z,68.55
2018-07-22T05:46:36.038Z,68.88
2018-07-22T05:47:36.600Z,68.01
2018-07-22T05:48:37.170Z,67.14
2018-07-22T05:49:37.739Z,67.14
2018-07-22T05:50:38.310Z,67.88
2018-07-22T05:51:38.884Z,68.46
2018-07-22T05:52:39.456Z,68.68
2018-07-22T05:53:40.032Z,67.91
2018-07-22T05:54:40.600Z,67.17
2018-07-22T05:55:41.188Z,66.40
2018-07-22T05:56:41.759Z,65.92
2018-07-22T05:57:42.322Z,65.34
2018-07-22T05:58:42.896Z,65.72
2018-07-22T05:59:43.491Z,66.20
2018-07-22T06:00:44.057Z,66.01
2018-07-22T06:01:44.644Z,66.17
2018-07-22T06:02:45.216Z,67.11
2018-07-22T06:03:45.836Z,68.07
2018-07-22T06:04:46.394Z,68.23
2018-07-22T06:05:46.959Z,69.10
2018-07-22T06:06:47.529Z,69.64
2018-07-22T06:07:48.099Z,70.19
2018-07-22T06:08:48.660Z,71.25
2018-07-22T06:09:49.232Z,71.15
2018-07-22T06:10:49.810Z,70.13
2018-07-22T06:11:50.439Z,70.06
2018-07-22T06:12:50.944Z,69.49
2018-07-22T06:13:51.531Z,68.75
2018-07-22T06:14:52.110Z,68.10
2018-07-22T06:15:52.681Z,67.94
2018-07-22T06:16:53.273Z,66.88
2018-07-22T06:17:53.826Z,65.92
2018-07-22T06:18:54.399Z,65.92
2018-07-22T06:19:54.973Z,66.05
2018-07-22T06:20:55.550Z,65.01
2018-07-22T06:21:56.114Z,64.14
2018-07-22T06:22:56.687Z,63.46
2018-07-22T06:23:57.260Z,63.98
2018-07-22T06:24:57.831Z,63.34
2018-07-22T06:25:58.411Z,62.07
2018-07-22T06:26:58.982Z,62.72
2018-07-22T06:27:59.552Z,62.56
2018-07-22T06:29:00.133Z,61.69
2018-07-22T06:30:00.708Z,61.88
2018-07-22T06:31:01.283Z,61.52
2018-07-22T06:32:01.898Z,60.97
2018-07-22T06:33:02.463Z,60.46
2018-07-22T06:34:03.037Z,60.82
2018-07-22T06:35:03.607Z,61.59
2018-07-22T06:36:04.172Z,61.59
2018-07-22T06:37:04.736Z,61.69
2018-07-22T06:38:05.311Z,61.69
2018-07-22T06:39:05.889Z,61.52
2018-07-22T06:40:06.462Z,60.65
2018-07-22T06:41:07.038Z,60.94
2018-07-22T06:42:07.601Z,60.85
2018-07-22T06:43:08.173Z,60.20
2018-07-22T06:44:08.748Z,60.58
2018-07-22T06:45:09.321Z,60.30
2018-07-22T06:46:09.923Z,60.39
2018-07-22T06:47:10.463Z,60.39
2018-07-22T06:48:11.043Z,60.39
2018-07-22T06:49:11.610Z,59.45
2018-07-22T06:50:12.182Z,58.77
2018-07-22T06:51:12.754Z,58.67
2018-07-22T06:52:13.331Z,58.67
2018-07-22T06:53:13.903Z,58.77
2018-07-22T06:54:14.483Z,58.61
2018-07-22T06:55:15.043Z,57.76
2018-07-22T06:56:15.616Z,57.86
2018-07-22T06:57:16.220Z,57.50
2018-07-22T06:58:16.758Z,56.56
2018-07-22T06:59:17.333Z,56.22
2018-07-22T07:00:17.907Z,55.15
2018-07-22T07:01:18.485Z,54.86
2018-07-22T07:02:19.063Z,54.74
2018-07-22T07:03:19.630Z,55.29
2018-07-22T07:04:20.204Z,55.68
2018-07-22T07:05:20.829Z,55.49
2018-07-22T07:06:21.348Z,55.58
2018-07-22T07:07:21.926Z,55.88
2018-07-22T07:08:22.499Z,55.51
2018-07-22T07:09:23.071Z,54.93
2018-07-22T07:10:23.643Z,54.83
2018-07-22T07:11:24.218Z,55.08
2018-07-22T07:12:24.799Z,53.99
2018-07-22T07:13:25.366Z,54.60
2018-07-22T07:14:25.944Z,54.76
2018-07-22T07:15:26.517Z,54.05
2018-07-22T07:16:27.088Z,54.96
2018-07-22T07:17:27.663Z,55.05
2018-07-22T07:18:28.236Z,54.01
2018-07-22T07:19:28.809Z,54.18
2018-07-22T07:20:29.401Z,54.54
2018-07-22T07:21:29.966Z,54.44
2018-07-22T07:22:30.542Z,54.83
2018-07-22T07:23:31.119Z,54.54
2018-07-22T07:24:31.698Z,54.66
2018-07-22T07:25:32.275Z,54.50
2018-07-22T07:26:32.857Z,53.94
2018-07-22T07:27:33.441Z,53.52
2018-07-22T07:28:34.003Z,53.62
2018-07-22T07:29:34.582Z,53.26
2018-07-22T07:30:35.186Z,53.55
2018-07-22T07:31:35.741Z,53.06
2018-07-22T07:32:36.308Z,52.58
2018-07-22T07:33:36.888Z,52.77
2018-07-22T07:34:37.468Z,52.87
2018-07-22T07:35:38.061Z,52.94
2018-07-22T07:36:38.626Z,53.33
2018-07-22T07:37:39.201Z,53.42
2018-07-22T07:38:39.775Z,53.52
2018-07-22T07:39:40.355Z,53.06
2018-07-22T07:40:40.928Z,52.87
2018-07-22T07:41:41.497Z,52.97
2018-07-22T07:42:42.074Z,53.04
2018-07-22T07:43:42.664Z,53.23
2018-07-22T07:44:43.215Z,53.40
2018-07-22T07:45:43.784Z,53.81
2018-07-22T07:46:44.357Z,53.69
2018-07-22T07:47:44.926Z,54.08
2018-07-22T07:48:45.490Z,53.77
2018-07-22T07:49:46.064Z,54.93
2018-07-22T07:50:46.638Z,54.83
2018-07-22T07:51:47.205Z,54.80
2018-07-22T07:52:47.780Z,55.36
2018-07-22T07:53:48.351Z,55.58
2018-07-22T07:54:48.928Z,54.93
2018-07-22T07:55:49.507Z,54.47
2018-07-22T07:56:50.080Z,54.50
2018-07-22T07:57:50.653Z,54.11
2018-07-22T07:58:51.222Z,54.03
2018-07-22T07:59:51.793Z,53.11
2018-07-22T08:00:52.368Z,51.63
2018-07-22T08:01:52.943Z,51.63
2018-07-22T08:02:53.518Z,51.82
2018-07-22T08:03:54.139Z,51.46
2018-07-22T08:04:54.662Z,50.38
2018-07-22T08:05:55.239Z,49.61
2018-07-22T08:06:55.808Z,49.85
2018-07-22T08:07:56.381Z,50.92
2018-07-22T08:08:56.957Z,51.31
2018-07-22T08:09:57.533Z,51.21
2018-07-22T08:10:58.114Z,51.12
2018-07-22T08:11:58.677Z,51.02
2018-07-22T08:12:59.254Z,50.63
2018-07-22T08:13:59.819Z,51.61
2018-07-22T08:15:00.396Z,51.70
2018-07-22T08:16:00.967Z,51.77
2018-07-22T08:17:01.544Z,52.55
2018-07-22T08:18:02.116Z,52.65
2018-07-22T08:19:02.696Z,52.16
2018-07-22T08:20:03.264Z,51.51
2018-07-22T08:21:03.830Z,51.34
2018-07-22T08:22:04.434Z,50.58
2018-07-22T08:23:04.964Z,49.80
2018-07-22T08:24:05.540Z,49.39
2018-07-22T08:25:06.116Z,49.78
2018-07-22T08:26:06.737Z,49.68
2018-07-22T08:27:07.257Z,49.49
2018-07-22T08:28:07.833Z,49.61
2018-07-22T08:29:08.407Z,49.61
2018-07-22T08:30:09.023Z,49.41
2018-07-22T08:31:09.551Z,48.46
2018-07-22T08:32:10.124Z,48.17
2018-07-22T08:33:10.699Z,48.49
2018-07-22T08:34:11.276Z,47.58
2018-07-22T08:35:11.856Z,47.68
2018-07-22T08:36:12.425Z,48.10
2018-07-22T08:37:12.998Z,47.22
2018-07-22T08:38:13.567Z,46.73
2018-07-22T08:39:14.189Z,46.34
2018-07-22T08:40:14.763Z,47.22
2018-07-22T08:41:15.398Z,47.17
2018-07-22T08:42:16.010Z,46.50
2018-07-22T08:43:16.586Z,45.82
2018-07-22T08:44:17.162Z,45.51
2018-07-22T08:45:17.740Z,46.00
2018-07-22T08:46:18.318Z,45.70
2018-07-22T08:47:18.890Z,45.82
2018-07-22T08:48:19.458Z,45.26
2018-07-22T08:49:20.026Z,45.43
2018-07-22T08:50:20.602Z,45.82
2018-07-22T08:51:21.178Z,45.72
2018-07-22T08:52:21.753Z,45.23
2018-07-22T08:53:22.332Z,45.37
2018-07-22T08:54:22.899Z,44.40
2018-07-22T08:55:23.481Z,42.74
2018-07-22T08:56:24.051Z,42.93
2018-07-22T08:57:24.621Z,43.93
2018-07-22T08:58:25.198Z,43.93
2018-07-22T08:59:25.774Z,43.27
2018-07-22T09:00:26.351Z,43.34
2018-07-22T09:01:26.933Z,41.46
2018-07-22T09:02:27.508Z,41.93
2018-07-22T09:03:28.088Z,42.25
2018-07-22T09:04:28.656Z,42.25
2018-07-22T09:05:29.256Z,42.07
2018-07-22T09:06:29.802Z,42.56
2018-07-22T09:07:30.384Z,41.97
2018-07-22T09:08:30.957Z,41.76
2018-07-22T09:09:31.533Z,42.35
2018-07-22T09:10:32.108Z,42.17
2018-07-22T09:11:32.689Z,41.58
2018-07-22T09:12:33.266Z,41.50
2018-07-22T09:13:33.841Z,41.60
2018-07-22T09:14:34.419Z,41.60
2018-07-22T09:15:34.996Z,41.39
2018-07-22T09:16:35.572Z,40.88
2018-07-22T09:17:36.168Z,41.44
2018-07-22T09:18:36.730Z,42.01
2018-07-22T09:19:37.299Z,42.61
2018-07-22T09:20:37.877Z,41.76
2018-07-22T09:21:38.447Z,42.05
2018-07-22T09:22:39.022Z,41.78
2018-07-22T09:23:39.597Z,41.49
2018-07-22T09:24:40.169Z,41.39
2018-07-22T09:25:40.742Z,41.78
2018-07-22T09:26:41.312Z,41.78
2018-07-22T09:27:41.890Z,41.97
2018-07-22T09:28:42.464Z,41.68
2018-07-22T09:29:43.035Z,41.93
2018-07-22T09:30:43.608Z,42.21
2018-07-22T09:31:44.185Z,42.40
2018-07-22T09:32:44.762Z,42.52
2018-07-22T09:33:45.340Z,42.50
2018-07-22T09:34:45.911Z,42.97
2018-07-22T09:35:46.530Z,43.28
2018-07-22T09:36:47.060Z,43.28
2018-07-22T09:37:47.629Z,43.10
2018-07-22T09:38:48.202Z,42.52
2018-07-22T09:39:48.780Z,42.91
2018-07-22T09:40:49.357Z,42.91
2018-07-22T09:41:49.942Z,43.40
2018-07-22T09:42:50.511Z,43.32
2018-07-22T09:43:51.081Z,42.27
2018-07-22T09:44:51.650Z,42.56
2018-07-22T09:45:52.225Z,41.96
2018-07-22T09:46:52.798Z,41.96
2018-07-22T09:47:53.370Z,42.25
2018-07-22T09:48:53.946Z,42.13
2018-07-22T09:49:54.515Z,42.03
2018-07-22T09:50:55.085Z,41.64
2018-07-22T09:51:55.656Z,41.66
2018-07-22T09:52:56.234Z,41.76
2018-07-22T09:53:56.809Z,41.49
2018-07-22T09:54:57.384Z,41.02
2018-07-22T09:55:57.961Z,40.74
2018-07-22T09:56:58.540Z,40.66
2018-07-22T09:57:59.115Z,40.66
2018-07-22T09:58:59.691Z,40.37
2018-07-22T10:00:00.262Z,40.09
2018-07-22T10:01:00.829Z,39.59
2018-07-22T10:02:01.410Z,39.47
2018-07-22T10:03:01.979Z,40.03
2018-07-22T10:04:02.552Z,40.01
2018-07-22T10:05:03.128Z,40.60
2018-07-22T10:06:03.707Z,40.50
2018-07-22T10:07:04.271Z,40.53
2018-07-22T10:08:04.849Z,40.70
2018-07-22T10:09:05.418Z,41.15
2018-07-22T10:10:05.994Z,41.54
2018-07-22T10:11:06.586Z,41.64
2018-07-22T10:12:07.145Z,41.54
2018-07-22T10:13:07.722Z,41.46
2018-07-22T10:14:08.301Z,41.00
2018-07-22T10:15:08.880Z,41.09
2018-07-22T10:16:09.456Z,41.41
2018-07-22T10:17:10.025Z,40.74
2018-07-22T10:18:10.601Z,40.06
2018-07-22T10:19:11.168Z,39.37
2018-07-22T10:20:11.744Z,39.29
2018-07-22T10:21:12.321Z,39.31
2018-07-22T10:22:12.898Z,39.11
2018-07-22T10:23:13.469Z,38.92
2018-07-22T10:24:14.042Z,38.92
2018-07-22T10:25:14.619Z,38.82
2018-07-22T10:26:15.190Z,38.82
2018-07-22T10:27:15.767Z,38.84
2018-07-22T10:28:16.341Z,39.03
2018-07-22T10:29:16.918Z,38.64
2018-07-22T10:30:17.492Z,39.01
2018-07-22T10:31:18.073Z,38.80
2018-07-22T10:32:18.652Z,38.98
2018-07-22T10:33:19.225Z,39.29
2018-07-22T10:34:19.804Z,39.39
2018-07-22T10:35:20.377Z,39.11
2018-07-22T10:36:20.945Z,39.11
2018-07-22T10:37:21.520Z,38.33
2018-07-22T10:38:22.095Z,38.33
2018-07-22T10:39:22.678Z,38.43
2018-07-22T10:40:23.247Z,38.15
2018-07-22T10:41:23.816Z,38.35
2018-07-22T10:42:24.388Z,38.43
2018-07-22T10:43:25.000Z,38.33
2018-07-22T10:44:25.539Z,38.39
2018-07-22T10:45:26.114Z,38.59
2018-07-22T10:46:26.690Z,38.68
2018-07-22T10:47:27.268Z,38.88
2018-07-22T10:48:27.844Z,38.88
2018-07-22T10:49:28.412Z,38.80
2018-07-22T10:50:28.989Z,38.43
2018-07-22T10:51:29.586Z,37.86
2018-07-22T10:52:30.143Z,38.06
2018-07-22T10:53:30.716Z,36.91
2018-07-22T10:54:31.295Z,36.82
2018-07-22T10:55:31.872Z,36.63
2018-07-22T10:56:32.448Z,36.62
2018-07-22T10:57:33.025Z,36.34
2018-07-22T10:58:33.601Z,36.05
2018-07-22T10:59:34.176Z,36.05
2018-07-22T11:00:34.750Z,36.15
2018-07-22T11:01:35.328Z,35.97
2018-07-22T11:02:35.903Z,36.34
2018-07-22T11:03:36.486Z,36.52
2018-07-22T11:04:37.048Z,36.52
2018-07-22T11:05:37.622Z,36.54
2018-07-22T11:06:38.200Z,35.77
2018-07-22T11:07:38.782Z,36.36
2018-07-22T11:08:39.355Z,35.77
2018-07-22T11:09:39.930Z,35.77
2018-07-22T11:10:40.504Z,35.97
2018-07-22T11:11:41.079Z,36.63
2018-07-22T11:12:41.653Z,36.16
2018-07-22T11:13:42.225Z,36.15
2018-07-22T11:14:42.864Z,36.42
2018-07-22T11:15:43.371Z,36.51
2018-07-22T11:16:43.939Z,36.52
2018-07-22T11:17:44.518Z,36.22
2018-07-22T11:18:45.097Z,36.54
2018-07-22T11:19:45.670Z,35.77
2018-07-22T11:20:46.257Z,35.47
2018-07-22T11:21:46.821Z,34.89
2018-07-22T11:22:47.397Z,34.99
2018-07-22T11:23:47.974Z,34.99
2018-07-22T11:24:48.552Z,34.59
2018-07-22T11:25:49.129Z,34.99
2018-07-22T11:26:49.706Z,34.61
2018-07-22T11:27:50.277Z,34.70
2018-07-22T11:28:50.964Z,34.59
2018-07-22T11:29:51.439Z,35.77
2018-07-22T11:30:52.006Z,34.89
2018-07-22T11:31:52.572Z,35.49
2018-07-22T11:32:53.147Z,35.20
2018-07-22T11:33:53.722Z,35.39
2018-07-22T11:34:54.303Z,35.49
2018-07-22T11:35:54.917Z,35.69
2018-07-22T11:36:55.453Z,34.92
2018-07-22T11:37:56.028Z,34.90
2018-07-22T11:38:56.605Z,35.16
2018-07-22T11:39:57.183Z,35.38
2018-07-22T11:40:57.764Z,35.38
2018-07-22T11:41:58.344Z,34.90
2018-07-22T11:42:58.918Z,34.33
2018-07-22T11:43:59.582Z,34.72
2018-07-22T11:45:00.063Z,34.63
2018-07-22T11:46:00.637Z,34.53
2018-07-22T11:47:01.207Z,35.41
2018-07-22T11:48:01.783Z,35.77
2018-07-22T11:49:02.365Z,35.38
2018-07-22T11:50:02.945Z,35.30
2018-07-22T11:51:03.521Z,34.92
2018-07-22T11:52:04.101Z,34.43
2018-07-22T11:53:04.682Z,34.53
2018-07-22T11:54:05.261Z,34.43
2018-07-22T11:55:05.834Z,34.61
2018-07-22T11:56:06.409Z,34.53
2018-07-22T11:57:06.990Z,34.23
2018-07-22T11:58:07.561Z,34.66
2018-07-22T11:59:08.136Z,33.98
2018-07-22T12:00:08.759Z,34.30
2018-07-22T12:01:09.283Z,34.20
2018-07-22T12:02:09.852Z,34.38
2018-07-22T12:03:10.430Z,34.10
2018-07-22T12:04:11.009Z,33.42
2018-07-22T12:05:11.586Z,33.42
2018-07-22T12:06:12.160Z,33.61
2018-07-22T12:07:12.739Z,33.22
2018-07-22T12:08:13.315Z,33.53
2018-07-22T12:09:13.885Z,33.03
2018-07-22T12:10:14.461Z,33.03
2018-07-22T12:11:15.035Z,33.25
2018-07-22T12:12:15.620Z,32.95
2018-07-22T12:13:16.187Z,32.97
2018-07-22T12:14:16.762Z,32.85
2018-07-22T12:15:17.410Z,33.06
2018-07-22T12:16:17.920Z,32.29
2018-07-22T12:17:18.498Z,32.01
2018-07-22T12:18:19.081Z,32.01
2018-07-22T12:19:19.657Z,32.10
2018-07-22T12:20:20.230Z,31.91
2018-07-22T12:21:20.869Z,32.09
2018-07-22T12:22:21.384Z,32.07
2018-07-22T12:23:21.963Z,32.84
2018-07-22T12:24:22.539Z,33.61
2018-07-22T12:25:23.119Z,33.39
2018-07-22T12:26:23.696Z,33.41
2018-07-22T12:27:24.273Z,33.23
2018-07-22T12:28:24.853Z,33.15
2018-07-22T12:29:25.426Z,33.03
2018-07-22T12:30:26.004Z,32.85
2018-07-22T12:31:26.574Z,33.25
2018-07-22T12:32:27.144Z,33.54
2018-07-22T12:33:27.722Z,33.54
2018-07-22T12:34:28.375Z,33.54
2018-07-22T12:35:28.874Z,33.54
2018-07-22T12:36:29.451Z,33.42
2018-07-22T12:37:30.032Z,33.92
2018-07-22T12:38:30.609Z,33.92
2018-07-22T12:39:31.183Z,34.01
2018-07-22T12:40:31.776Z,34.03
2018-07-22T12:41:32.339Z,34.31
2018-07-22T12:42:32.913Z,34.22
2018-07-22T12:43:33.486Z,34.30
2018-07-22T12:44:34.064Z,34.22
2018-07-22T12:45:34.646Z,34.58
2018-07-22T12:46:35.292Z,34.77
2018-07-22T12:47:35.786Z,34.66
2018-07-22T12:48:36.356Z,34.75
2018-07-22T12:49:36.933Z,34.79
2018-07-22T12:50:37.512Z,34.79
2018-07-22T12:51:38.094Z,34.81
2018-07-22T12:52:38.668Z,34.48
2018-07-22T12:53:39.253Z,35.17
2018-07-22T12:54:39.819Z,34.79
2018-07-22T12:55:40.388Z,34.97
2018-07-22T12:56:40.973Z,35.27
2018-07-22T12:57:41.541Z,34.87
2018-07-22T12:58:42.125Z,34.74
2018-07-22T12:59:42.699Z,35.27